createdAt,value
2022-09-23T00:01:11.990Z,10.45
2022-09-23T00:07:03.092Z,9.98
2022-09-23T00:09:50.708Z,9.00
2022-09-23T00:12:46.384Z,9.98
2022-09-23T00:15:25.192Z,10.35
2022-09-23T00:18:29.545Z,11.70
2022-09-23T00:21:18.260Z,12.05
2022-09-23T00:23:59.006Z,13.48
2022-09-23T00:26:33.456Z,12.82
2022-09-23T00:29:30.452Z,13.77
2022-09-23T00:32:07.326Z,13.57
2022-09-23T00:34:49.462Z,13.02
2022-09-23T00:37:32.269Z,12.63
2022-09-23T00:43:21.150Z,12.93
2022-09-23T00:46:07.594Z,13.07
2022-09-23T00:48:54.000Z,13.13
2022-09-23T00:51:56.616Z,14.10
2022-09-23T00:57:54.758Z,15.30
2022-09-23T01:00:53.520Z,14.87
2022-09-23T01:04:02.145Z,14.55
2022-09-23T01:06:55.152Z,13.43
2022-09-23T01:09:48.454Z,12.77
2022-09-23T01:16:01.801Z,12.07
2022-09-23T01:18:56.852Z,11.13
2022-09-23T01:21:55.200Z,10.50
2022-09-23T01:25:09.702Z,12.67
2022-09-23T01:28:02.085Z,10.37
2022-09-23T01:33:59.308Z,10.90
2022-09-23T01:36:46.746Z,10.00
2022-09-23T01:39:30.807Z,15.17
2022-09-23T01:42:11.461Z,16.27
2022-09-23T01:44:56.038Z,15.33
2022-09-23T01:47:42.437Z,13.20
2022-09-23T01:50:43.472Z,22.60
2022-09-23T01:59:14.840Z,10.90
2022-09-23T02:02:09.328Z,8.80
2022-09-23T02:05:09.045Z,8.03
2022-09-23T02:07:57.770Z,8.43
2022-09-23T02:10:41.825Z,8.73
2022-09-23T02:13:27.433Z,9.93
2022-09-23T02:16:26.842Z,8.77
2022-09-23T02:19:12.459Z,7.40
2022-09-23T02:22:05.068Z,7.20
2022-09-23T02:27:58.180Z,8.07
2022-09-23T02:30:39.734Z,8.90
2022-09-23T02:33:37.429Z,8.27
2022-09-23T02:36:24.111Z,8.20
2022-09-23T02:39:10.209Z,7.93
2022-09-23T02:42:11.739Z,7.50
2022-09-23T02:44:57.854Z,8.50
2022-09-23T02:47:53.632Z,7.17
2022-09-23T02:50:30.463Z,10.00
2022-09-23T02:53:17.157Z,7.53
2022-09-23T02:56:15.019Z,7.13
2022-09-23T02:58:51.135Z,11.67
2022-09-23T03:02:03.146Z,7.20
2022-09-23T03:04:53.591Z,6.73
2022-09-23T03:07:49.482Z,7.57
2022-09-23T03:10:43.464Z,6.50
2022-09-23T03:13:39.118Z,7.30
2022-09-23T03:16:51.405Z,7.23
2022-09-23T03:20:03.235Z,8.87
2022-09-23T03:22:49.103Z,6.93
2022-09-23T03:25:32.245Z,7.13
2022-09-23T03:28:26.763Z,6.90
2022-09-23T03:31:12.950Z,7.83
2022-09-23T03:33:56.553Z,7.40
2022-09-23T03:37:05.411Z,6.90
2022-09-23T03:40:04.282Z,7.38
2022-09-23T03:42:55.179Z,6.83
2022-09-23T03:46:14.509Z,7.30
2022-09-23T03:49:17.065Z,6.37
2022-09-23T03:51:56.529Z,6.87
2022-09-23T03:54:44.903Z,6.93
2022-09-23T03:57:28.878Z,7.43
2022-09-23T04:00:08.530Z,6.57
2022-09-23T04:02:53.766Z,6.60
2022-09-23T04:05:48.490Z,5.77
2022-09-23T04:08:39.174Z,7.07
2022-09-23T04:11:21.336Z,6.40
2022-09-23T04:14:07.882Z,6.83
2022-09-23T04:16:55.134Z,7.67
2022-09-23T04:19:34.039Z,6.23
2022-09-23T04:22:34.842Z,6.30
2022-09-23T04:25:21.226Z,6.63
2022-09-23T04:28:15.722Z,7.50
2022-09-23T04:31:00.966Z,8.77
2022-09-23T04:33:40.581Z,10.23
2022-09-23T04:36:25.479Z,7.20
2022-09-23T04:39:34.588Z,6.37
2022-09-23T04:44:55.007Z,5.70
2022-09-23T04:47:41.420Z,5.65
2022-09-23T04:50:30.731Z,6.27
2022-09-23T04:53:15.821Z,6.50
2022-09-23T04:56:16.615Z,5.43
2022-09-23T04:58:59.315Z,5.45
2022-09-23T05:01:54.304Z,5.30
2022-09-23T05:04:49.429Z,6.03
2022-09-23T05:07:47.253Z,5.17
2022-09-23T05:10:41.980Z,5.03
2022-09-23T05:13:32.590Z,4.77
2022-09-23T05:16:44.301Z,4.60
2022-09-23T05:19:31.662Z,12.73
2022-09-23T05:22:09.513Z,4.37
2022-09-23T05:25:08.945Z,3.83
2022-09-23T05:27:45.279Z,3.77
2022-09-23T05:30:26.885Z,4.43
2022-09-23T05:33:13.821Z,6.00
2022-09-23T05:36:09.075Z,5.30
2022-09-23T05:38:45.353Z,5.30
2022-09-23T05:41:33.820Z,4.70
2022-09-23T05:44:13.383Z,5.20
2022-09-23T05:47:10.233Z,5.07
2022-09-23T05:50:00.461Z,4.30
2022-09-23T05:52:45.875Z,3.83
2022-09-23T05:55:21.149Z,4.27
2022-09-23T05:58:09.626Z,3.40
2022-09-23T06:03:55.191Z,4.07
2022-09-23T06:06:47.023Z,3.27
2022-09-23T06:09:34.154Z,3.30
2022-09-23T06:12:16.425Z,4.32
2022-09-23T06:15:01.008Z,3.20
2022-09-23T06:17:48.183Z,4.03
2022-09-23T06:20:45.233Z,3.43
2022-09-23T06:29:27.930Z,4.27
2022-09-23T06:32:09.464Z,3.40
2022-09-23T06:34:53.976Z,4.50
2022-09-23T06:37:43.844Z,3.73
2022-09-23T06:40:23.815Z,5.27
2022-09-23T06:43:15.042Z,3.10
2022-09-23T06:45:54.875Z,4.57
2022-09-23T06:51:34.941Z,2.80
2022-09-23T06:55:02.455Z,4.13
2022-09-23T06:57:46.302Z,2.90
2022-09-23T07:00:22.375Z,3.27
2022-09-23T07:03:01.917Z,2.87
2022-09-23T07:05:36.331Z,2.97
2022-09-23T07:08:18.620Z,3.60
2022-09-23T07:11:04.202Z,3.40
2022-09-23T07:14:17.922Z,4.50
2022-09-23T07:20:07.816Z,3.90
2022-09-23T07:22:48.257Z,4.23
2022-09-23T07:25:30.174Z,3.70
2022-09-23T07:28:07.655Z,5.37
2022-09-23T07:31:00.672Z,5.50
2022-09-23T07:33:38.772Z,2.93
2022-09-23T07:36:21.240Z,3.30
2022-09-23T07:39:13.683Z,3.43
2022-09-23T07:45:05.917Z,3.77
2022-09-23T07:47:46.177Z,6.30
2022-09-23T07:53:17.832Z,3.67
2022-09-23T07:56:03.014Z,3.77
2022-09-23T07:58:41.280Z,3.50
2022-09-23T08:01:24.137Z,3.40
2022-09-23T08:04:10.097Z,4.82
2022-09-23T08:06:48.644Z,4.50
2022-09-23T08:09:40.460Z,5.18
2022-09-23T08:12:25.631Z,4.50
2022-09-23T08:15:15.470Z,4.97
2022-09-23T08:18:09.783Z,4.73
2022-09-23T08:20:59.357Z,5.20
2022-09-23T08:23:35.582Z,4.40
2022-09-23T08:26:22.442Z,4.70
2022-09-23T08:29:02.917Z,5.23
2022-09-23T08:31:59.207Z,7.23
2022-09-23T08:34:41.666Z,5.20
2022-09-23T08:37:19.237Z,5.07
2022-09-23T08:39:58.671Z,5.63
2022-09-23T08:45:43.911Z,5.63
2022-09-23T08:48:39.421Z,5.73
2022-09-23T08:51:54.459Z,6.30
2022-09-23T08:54:37.902Z,5.30
2022-09-23T08:57:16.395Z,6.20
2022-09-23T09:00:06.809Z,6.72
2022-09-23T09:02:49.990Z,5.37
2022-09-23T09:05:36.598Z,6.73
2022-09-23T09:08:30.301Z,5.90
2022-09-23T09:14:34.985Z,6.30
2022-09-23T09:17:31.807Z,7.13
2022-09-23T09:20:28.583Z,7.00
2022-09-23T09:23:29.228Z,6.83
2022-09-23T09:26:20.912Z,6.70
2022-09-23T09:29:16.824Z,6.67
2022-09-23T09:32:04.291Z,6.50
2022-09-23T09:34:56.747Z,6.53
2022-09-23T09:37:48.121Z,4.93
2022-09-23T09:40:38.235Z,5.68
2022-09-23T09:43:43.454Z,5.63
2022-09-23T09:46:48.922Z,5.60
2022-09-23T09:49:44.396Z,5.50
2022-09-23T09:52:46.138Z,6.28
2022-09-23T09:55:32.532Z,6.20
2022-09-23T09:58:34.154Z,5.60
2022-09-23T10:07:36.392Z,5.97
2022-09-23T10:10:32.732Z,5.53
2022-09-23T10:13:28.164Z,5.55
2022-09-23T10:16:10.994Z,5.75
2022-09-23T10:19:23.543Z,5.20
2022-09-23T10:22:04.573Z,5.85
2022-09-23T10:24:46.574Z,5.72
2022-09-23T10:27:50.824Z,5.40
2022-09-23T10:30:39.342Z,6.35
2022-09-23T10:33:46.593Z,5.55
2022-09-23T10:36:35.208Z,5.90
2022-09-23T10:39:31.068Z,6.18
2022-09-23T10:42:32.293Z,5.57
2022-09-23T10:45:48.892Z,5.10
2022-09-23T10:48:39.619Z,5.80
2022-09-23T10:51:26.016Z,5.28
2022-09-23T10:54:24.393Z,5.50
2022-09-23T10:57:04.387Z,5.70
2022-09-23T11:00:10.176Z,5.63
2022-09-23T11:03:11.961Z,5.45
2022-09-23T11:06:05.672Z,5.30
2022-09-23T11:08:58.312Z,6.05
2022-09-23T11:11:54.606Z,5.18
2022-09-23T11:15:04.574Z,5.43
2022-09-23T11:18:26.446Z,4.85
2022-09-23T11:22:25.861Z,4.85
2022-09-23T11:25:20.551Z,4.78
2022-09-23T11:28:32.699Z,4.45
2022-09-23T11:31:29.788Z,4.82
2022-09-23T11:34:24.476Z,4.72
2022-09-23T11:37:05.743Z,5.10
2022-09-23T11:40:03.746Z,5.20
2022-09-23T11:42:55.903Z,5.05
2022-09-23T11:45:54.395Z,5.13
2022-09-23T11:48:37.820Z,5.07
2022-09-23T11:51:45.548Z,5.63
2022-09-23T11:54:31.752Z,5.30
2022-09-23T11:57:15.365Z,5.68
2022-09-23T12:00:05.089Z,5.82
2022-09-23T12:03:04.578Z,4.93
2022-09-23T12:05:58.768Z,4.65
2022-09-23T12:08:47.340Z,4.47
2022-09-23T12:11:49.077Z,4.75
2022-09-23T12:14:36.570Z,5.65
2022-09-23T12:17:41.703Z,5.32
2022-09-23T12:20:50.780Z,5.35
2022-09-23T12:23:45.264Z,5.70
2022-09-23T12:26:30.881Z,5.50
2022-09-23T12:29:17.742Z,4.80
2022-09-23T12:32:02.987Z,5.50
2022-09-23T12:35:05.555Z,5.30
2022-09-23T12:40:55.035Z,5.38
2022-09-23T12:43:44.076Z,5.28
2022-09-23T12:46:38.031Z,5.72
2022-09-23T12:49:51.946Z,5.22
2022-09-23T12:56:05.081Z,4.70
2022-09-23T12:59:03.905Z,5.00
2022-09-23T13:01:54.860Z,5.47
2022-09-23T13:05:15.455Z,5.20
2022-09-23T13:10:59.784Z,4.88
2022-09-23T13:13:56.160Z,4.88
2022-09-23T13:16:43.822Z,4.75
2022-09-23T13:20:16.648Z,4.30
2022-09-23T13:23:31.164Z,4.60
2022-09-23T13:26:22.282Z,4.07
2022-09-23T13:29:15.116Z,4.25
2022-09-23T13:35:01.748Z,4.80
2022-09-23T13:37:58.605Z,4.80
2022-09-23T13:40:46.704Z,4.95
2022-09-23T13:43:30.041Z,5.05
2022-09-23T13:46:28.401Z,5.13
2022-09-23T13:49:17.985Z,4.57
2022-09-23T13:55:02.854Z,4.38
2022-09-23T13:57:54.507Z,4.07
2022-09-23T14:00:50.298Z,4.05
2022-09-23T14:03:48.976Z,4.03
2022-09-23T14:06:33.043Z,3.90
2022-09-23T14:09:14.197Z,3.55
2022-09-23T14:11:57.251Z,3.53
2022-09-23T14:14:36.559Z,3.65
2022-09-23T14:17:12.852Z,4.05
2022-09-23T14:20:05.525Z,4.50
2022-09-23T14:22:53.741Z,4.28
2022-09-23T14:25:46.999Z,4.22
2022-09-23T14:28:37.739Z,5.03
2022-09-23T14:31:20.298Z,4.70
2022-09-23T14:33:59.298Z,4.85
2022-09-23T14:40:25.503Z,4.28
2022-09-23T14:43:07.730Z,5.72
2022-09-23T14:45:53.897Z,4.90
2022-09-23T14:48:35.319Z,4.65
2022-09-23T14:51:18.554Z,4.88
2022-09-23T14:54:00.358Z,5.50
2022-09-23T14:56:59.701Z,4.93
2022-09-23T14:59:38.800Z,3.78
2022-09-23T15:02:56.230Z,3.72
2022-09-23T15:05:57.097Z,4.18
2022-09-23T15:08:46.602Z,3.75
2022-09-23T15:14:38.318Z,4.47
2022-09-23T15:17:23.825Z,4.18
2022-09-23T15:20:13.337Z,3.85
2022-09-23T15:25:48.959Z,4.10
2022-09-23T15:28:29.617Z,3.53
2022-09-23T15:31:15.626Z,3.90
2022-09-23T15:34:01.729Z,4.32
2022-09-23T15:36:39.228Z,4.20
2022-09-23T15:39:21.257Z,3.72
2022-09-23T15:42:08.140Z,4.00
2022-09-23T15:44:51.399Z,4.00
2022-09-23T15:47:44.390Z,3.85
2022-09-23T15:50:21.263Z,3.72
2022-09-23T15:53:21.497Z,3.55
2022-09-23T15:56:12.370Z,3.80
2022-09-23T15:58:55.970Z,3.92
2022-09-23T16:01:36.935Z,4.40
2022-09-23T16:04:44.132Z,4.10
2022-09-23T16:07:33.797Z,4.85
2022-09-23T16:10:15.397Z,4.80
2022-09-23T16:12:50.825Z,4.90
2022-09-23T16:15:37.745Z,4.53
2022-09-23T16:18:18.891Z,4.47
2022-09-23T16:21:00.947Z,4.70
2022-09-23T16:23:41.560Z,5.63
2022-09-23T16:26:28.734Z,5.22
2022-09-23T16:29:10.030Z,4.35
2022-09-23T16:32:10.432Z,4.82
2022-09-23T16:34:48.255Z,4.70
2022-09-23T16:37:31.464Z,4.88
2022-09-23T16:40:11.677Z,4.85
2022-09-23T16:42:58.945Z,6.10
2022-09-23T16:45:40.997Z,6.88
2022-09-23T16:48:20.784Z,6.80
2022-09-23T16:51:05.092Z,6.68
2022-09-23T16:53:45.953Z,7.00
2022-09-23T16:56:28.131Z,7.28
2022-09-23T16:59:06.879Z,7.53
2022-09-23T17:02:05.767Z,6.88
2022-09-23T17:04:53.961Z,7.68
2022-09-23T17:07:37.766Z,7.53
2022-09-23T17:10:40.290Z,8.10
2022-09-23T17:13:18.360Z,7.60
2022-09-23T17:15:58.072Z,7.97
2022-09-23T17:18:38.198Z,7.80
2022-09-23T17:21:28.889Z,7.63
2022-09-23T17:24:12.225Z,7.38
2022-09-23T17:27:09.554Z,7.70
2022-09-23T17:29:48.442Z,8.13
2022-09-23T17:32:36.636Z,7.18
2022-09-23T17:35:31.375Z,7.78
2022-09-23T17:38:13.883Z,8.15
2022-09-23T17:41:02.369Z,8.10
2022-09-23T17:44:05.967Z,8.25
2022-09-23T17:46:51.451Z,8.50
2022-09-23T17:49:38.204Z,8.52
2022-09-23T17:52:32.272Z,8.48
2022-09-23T17:55:17.235Z,8.63
2022-09-23T17:58:02.119Z,8.07
2022-09-23T18:00:58.727Z,7.53
2022-09-23T18:03:42.992Z,7.90
2022-09-23T18:06:27.529Z,7.45
2022-09-23T18:09:10.357Z,7.35
2022-09-23T18:12:25.353Z,7.35
2022-09-23T18:15:12.014Z,8.52
2022-09-23T18:20:30.519Z,7.85
2022-09-23T18:23:25.844Z,7.90
2022-09-23T18:26:06.031Z,7.35
2022-09-23T18:28:53.305Z,7.20
2022-09-23T18:31:43.654Z,6.70
2022-09-23T18:34:32.458Z,6.80
2022-09-23T18:37:18.830Z,7.10
2022-09-23T18:39:59.704Z,7.63
2022-09-23T18:42:58.592Z,6.97
2022-09-23T18:46:06.702Z,7.35
2022-09-23T18:48:58.009Z,6.20
2022-09-23T18:52:01.665Z,6.13
2022-09-23T18:57:42.432Z,6.78
2022-09-23T19:00:31.129Z,6.57
2022-09-23T19:03:18.021Z,7.15
2022-09-23T19:06:03.346Z,6.13
2022-09-23T19:09:04.592Z,6.50
2022-09-23T19:11:44.531Z,7.47
2022-09-23T19:14:24.665Z,6.85
2022-09-23T19:17:13.654Z,6.43
2022-09-23T19:19:54.606Z,6.32
2022-09-23T19:22:36.353Z,6.57
2022-09-23T19:25:19.116Z,5.97
2022-09-23T19:28:05.216Z,6.28
2022-09-23T19:30:57.383Z,6.28
2022-09-23T19:33:39.054Z,5.97
2022-09-23T19:36:15.335Z,6.40
2022-09-23T19:39:05.075Z,6.45
2022-09-23T19:41:52.875Z,6.20
2022-09-23T19:44:35.099Z,6.40
2022-09-23T19:47:22.824Z,6.18
2022-09-23T19:50:00.119Z,5.95
2022-09-23T19:52:39.679Z,6.35
2022-09-23T20:00:49.091Z,6.20
2022-09-23T20:03:27.150Z,7.20
2022-09-23T20:06:25.235Z,6.30
2022-09-23T20:09:09.326Z,6.32
2022-09-23T20:11:54.289Z,6.13
2022-09-23T20:14:47.481Z,6.78
2022-09-23T20:17:32.906Z,5.88
2022-09-23T20:20:21.885Z,6.05
2022-09-23T20:23:13.471Z,5.93
2022-09-23T20:26:28.995Z,5.60
2022-09-23T20:29:18.305Z,5.30
2022-09-23T20:32:10.727Z,5.70
2022-09-23T20:34:55.815Z,5.05
2022-09-23T20:37:35.187Z,5.38
2022-09-23T20:40:16.418Z,5.80
2022-09-23T20:45:42.159Z,3.95
2022-09-23T20:48:30.013Z,3.67
2022-09-23T20:51:11.114Z,3.72
2022-09-23T20:53:59.595Z,3.70
2022-09-23T20:56:45.129Z,3.65
2022-09-23T20:59:24.484Z,3.38
2022-09-23T21:02:07.667Z,2.70
2022-09-23T21:05:01.729Z,2.97
2022-09-23T21:07:38.314Z,2.95
2022-09-23T21:10:19.743Z,3.03
2022-09-23T21:13:01.951Z,3.30
2022-09-23T21:15:57.122Z,2.92
2022-09-23T21:19:19.030Z,3.40
2022-09-23T21:22:11.963Z,3.33
2022-09-23T21:25:26.213Z,3.17
2022-09-23T21:30:55.692Z,2.00
2022-09-23T21:33:32.780Z,1.60
2022-09-23T21:36:13.977Z,1.95
2022-09-23T21:39:11.612Z,1.90
2022-09-23T21:41:56.149Z,1.77
2022-09-23T21:44:36.078Z,1.30
2022-09-23T21:47:30.561Z,1.60
2022-09-23T21:50:19.598Z,1.40
2022-09-23T21:53:15.912Z,1.35
2022-09-23T21:56:14.021Z,1.10
2022-09-23T21:59:13.823Z,0.90
2022-09-23T22:01:54.302Z,0.93
2022-09-23T22:04:42.844Z,0.70
2022-09-23T22:07:21.093Z,1.00
2022-09-23T22:10:18.653Z,0.90
2022-09-23T22:13:10.551Z,0.60
2022-09-23T22:16:03.892Z,0.80
2022-09-23T22:18:40.979Z,0.60
2022-09-23T22:21:27.257Z,0.52
2022-09-23T22:24:11.611Z,0.60
2022-09-23T22:27:00.472Z,0.65
2022-09-23T22:32:55.297Z,0.63
2022-09-23T22:35:34.992Z,0.40
2022-09-23T22:38:26.617Z,0.65
2022-09-23T22:41:17.725Z,0.60
2022-09-23T22:44:05.459Z,0.50
2022-09-23T22:47:05.719Z,0.60
2022-09-23T22:49:50.111Z,0.40
2022-09-23T22:52:39.924Z,0.60
2022-09-23T22:55:35.472Z,0.40
2022-09-23T22:58:32.150Z,0.65
2022-09-23T23:01:21.570Z,0.50
2022-09-23T23:04:21.292Z,0.40
2022-09-23T23:07:07.112Z,0.40
2022-09-23T23:10:07.140Z,0.50
2022-09-23T23:12:52.367Z,0.40
2022-09-23T23:15:58.871Z,0.70
2022-09-23T23:18:42.029Z,0.52
2022-09-23T23:21:35.966Z,0.47
2022-09-23T23:24:27.050Z,0.52
2022-09-23T23:27:08.712Z,0.50
2022-09-23T23:29:47.113Z,0.63
2022-09-23T23:32:28.374Z,0.60
2022-09-23T23:35:39.434Z,0.60
2022-09-23T23:38:33.353Z,0.55
2022-09-23T23:41:25.336Z,1.98
2022-09-23T23:44:09.606Z,0.90
2022-09-23T23:46:53.244Z,0.50
2022-09-23T23:49:34.211Z,0.70
2022-09-23T23:52:23.584Z,0.70
2022-09-23T23:55:16.867Z,0.52
2022-09-23T23:57:56.413Z,0.40
